Time;durP1;ratioP1;P1;durP2;ratioP2;P2;SDS_P1;SDS_P2;PMS_P1;PMS_P2;Temp;Humidity;BMP_temperature;BMP_pressure;BME280_temperature;BME280_humidity;BME280_pressure;Samples;Min_cycle;Max_cycle;Signal;HPM_P1;HPM_P2
2022/01/31 00:01:33;;;;;;;;;0.00;0.00;;;;;14.25;40.98;97965.31;6294147;22;102075;-80
2022/01/31 00:04:02;;;;;;;;;0.00;0.00;;;;;14.25;40.36;97968.03;6310177;22;101995;-80
2022/01/31 00:06:29;;;;;;;;;0.00;0.00;;;;;14.27;40.49;97974.03;6314590;22;103582;-80
2022/01/31 00:08:56;;;;;;;;;0.50;0.00;;;;;14.28;41.02;97981.13;6313320;22;102041;-80
2022/01/31 00:11:23;;;;;;;;;0.00;0.00;;;;;14.28;40.95;97975.69;6313680;22;101767;-80
2022/01/31 00:14:00;;;;;;;;;0.00;0.00;;;;;14.28;40.44;97978.41;6305831;22;102104;-80
2022/01/31 00:16:32;;;;;;;;;0.00;0.00;;;;;14.26;40.52;97969.69;6314575;22;103618;-80
2022/01/31 00:18:59;;;;;;;;;0.25;0.00;;;;;14.29;40.23;97982.78;6317567;22;102156;-80
2022/01/31 00:21:27;;;;;;;;;0.00;0.00;;;;;14.28;40.34;97967.53;6311902;22;101632;-80
2022/01/31 00:23:54;;;;;;;;;0.00;0.00;;;;;14.28;40.97;97969.44;6312754;22;101622;-80
2022/01/31 00:26:21;;;;;;;;;0.25;0.00;;;;;14.28;40.26;97970.25;6279068;22;103321;-80
2022/01/31 00:28:48;;;;;;;;;2.00;0.00;;;;;14.27;41.21;97967.78;6274894;22;101807;-80
2022/01/31 00:31:15;;;;;;;;;0.00;0.00;;;;;14.27;40.39;97970.53;6300567;22;102054;-80
2022/01/31 00:33:42;;;;;;;;;0.00;0.00;;;;;14.27;40.49;97968.59;6291741;22;102237;-80
2022/01/31 00:36:09;;;;;;;;;0.00;0.00;;;;;14.28;40.80;97974.88;6309543;22;103727;-80
2022/01/31 00:38:36;;;;;;;;;0.00;0.00;;;;;14.27;41.22;97979.47;6320051;22;101930;-80
2022/01/31 00:41:03;;;;;;;;;0.50;0.00;;;;;14.28;40.42;97983.03;6311057;22;102076;-80
2022/01/31 00:43:33;;;;;;;;;0.00;0.00;;;;;14.28;40.91;97980.31;6294305;22;101917;-80
2022/01/31 00:46:08;;;;;;;;;0.00;0.00;;;;;14.27;40.43;97968.59;6309024;22;103677;-80
2022/01/31 00:48:41;;;;;;;;;0.00;0.00;;;;;14.24;40.82;97973.69;6313527;22;101721;-80
2022/01/31 00:51:09;;;;;;;;;0.00;0.00;;;;;14.28;40.97;97986.56;6318124;22;101990;-80
2022/01/31 00:53:36;;;;;;;;;0.00;0.00;;;;;14.27;40.10;97989.56;6322999;22;102042;-80
2022/01/31 00:56:03;;;;;;;;;0.00;0.00;;;;;14.28;41.18;97992.00;6283754;22;103269;-80
2022/01/31 00:58:31;;;;;;;;;0.00;0.00;;;;;14.27;40.93;97995.78;6293535;22;101895;-80
2022/01/31 01:00:58;;;;;;;;;0.00;0.00;;;;;14.27;40.59;98011.31;6265994;22;102170;-80
2022/01/31 01:03:25;;;;;;;;;0.00;0.00;;;;;14.26;40.08;97993.34;6272564;22;102435;-80
2022/01/31 01:05:53;;;;;;;;;0.00;0.00;;;;;14.26;40.40;98013.19;6275214;22;103243;-80
2022/01/31 01:08:20;;;;;;;;;1.00;0.00;;;;;14.26;40.67;97990.63;6282086;22;101876;-80
2022/01/31 01:10:47;;;;;;;;;0.00;0.00;;;;;14.26;40.84;98006.94;6252164;22;101697;-80
2022/01/31 01:13:14;;;;;;;;;1.00;0.00;;;;;14.25;40.91;97991.66;6285315;22;101674;-80
2022/01/31 01:15:41;;;;;;;;;0.00;0.00;;;;;14.24;40.36;97996.28;6285891;22;103618;-79
2022/01/31 01:18:08;;;;;;;;;0.00;0.00;;;;;14.24;41.25;97996.28;6289300;22;101695;-80
2022/01/31 01:20:36;;;;;;;;;0.00;0.00;;;;;14.25;40.63;97997.94;6286945;22;101663;-80
2022/01/31 01:23:03;;;;;;;;;1.00;0.00;;;;;14.25;40.93;97989.78;6286212;22;102200;-80
2022/01/31 01:25:32;;;;;;;;;0.00;0.00;;;;;14.25;41.09;97976.19;6280536;22;103304;-80
2022/01/31 01:28:00;;;;;;;;;0.00;0.00;;;;;14.26;40.64;97972.41;6279410;22;102012;-80
2022/01/31 01:30:27;;;;;;;;;0.00;0.00;;;;;14.25;40.39;97970.75;6283532;22;102107;-80
2022/01/31 01:35:26;;;;;;;;;0.00;0.00;;;;;14.26;40.36;97969.69;6259684;22;103298;-80
2022/01/31 01:37:53;;;;;;;;;0.00;0.00;;;;;14.26;41.13;97969.69;6281210;22;101734;-80
2022/01/31 01:40:20;;;;;;;;;0.00;0.00;;;;;14.26;40.19;97972.41;6275663;22;101707;-80
2022/01/31 01:42:48;;;;;;;;;0.00;0.00;;;;;14.25;40.34;97959.03;6275852;22;101611;-80
2022/01/31 01:45:15;;;;;;;;;0.00;0.00;;;;;14.24;40.90;97950.06;6275963;22;103286;-80
2022/01/31 01:47:42;;;;;;;;;0.00;0.00;;;;;14.25;40.83;97948.16;6283259;22;102041;-80
2022/01/31 01:50:09;;;;;;;;;0.00;0.00;;;;;14.24;40.75;97933.75;6285638;22;101859;-80
2022/01/31 01:52:36;;;;;;;;;0.00;0.00;;;;;14.24;40.75;97927.47;6275534;22;101783;-80
2022/01/31 01:55:03;;;;;;;;;1.00;0.00;;;;;14.25;41.10;97929.13;6281009;22;103499;-80
2022/01/31 01:57:30;;;;;;;;;0.00;0.00;;;;;14.24;40.81;97922.03;6313571;22;101905;-80
2022/01/31 01:59:58;;;;;;;;;0.00;0.00;;;;;14.25;40.82;97910.94;6249942;22;102487;-80
2022/01/31 02:02:25;;;;;;;;;0.50;0.00;;;;;14.25;40.74;97896.50;6256786;22;101957;-80
2022/01/31 02:04:52;;;;;;;;;0.00;0.00;;;;;14.27;40.78;97899.81;6307587;22;103663;-80
2022/01/31 02:07:19;;;;;;;;;0.00;0.00;;;;;14.26;40.82;97903.59;6311192;22;101570;-80
2022/01/31 02:09:53;;;;;;;;;0.75;0.00;;;;;14.26;40.52;97909.88;6267686;22;101739;-80
2022/01/31 02:12:20;;;;;;;;;0.00;0.00;;;;;14.27;40.35;97889.72;6253590;22;101881;-80
2022/01/31 02:14:47;;;;;;;;;0.00;0.00;;;;;14.27;40.35;97892.47;6278219;22;103346;-80
2022/01/31 02:17:15;;;;;;;;;0.00;0.00;;;;;14.26;40.72;97901.69;6315253;22;102069;-80
2022/01/31 02:19:42;;;;;;;;;0.00;0.00;;;;;14.26;40.32;97888.09;6324347;22;102083;-79
2022/01/31 02:22:09;;;;;;;;;0.00;0.00;;;;;14.27;40.87;97887.00;6315780;22;101850;-80
2022/01/31 02:24:36;;;;;;;;;0.00;0.00;;;;;14.27;40.89;97891.66;6321607;22;110982;-80
2022/01/31 02:27:04;;;;;;;;;1.00;0.00;;;;;14.27;40.15;97886.22;6321252;22;101716;-80
2022/01/31 02:29:31;;;;;;;;;1.25;0.00;;;;;14.27;40.75;97886.22;6314446;22;101781;-80
2022/01/31 02:31:58;;;;;;;;;0.00;0.00;;;;;14.27;40.35;97878.84;6313166;22;101966;-80
2022/01/31 02:34:26;;;;;;;;;0.00;0.00;;;;;14.26;40.69;97884.56;6311244;22;103344;-80
2022/01/31 02:36:53;;;;;;;;;0.00;0.00;;;;;14.26;40.91;97882.66;6286878;22;103365;-80
2022/01/31 02:39:20;;;;;;;;;1.25;0.00;;;;;14.25;40.70;97877.47;6292289;22;102018;-80
2022/01/31 02:41:48;;;;;;;;;0.00;0.00;;;;;14.26;40.42;97881.84;6296914;22;101964;-80
2022/01/31 02:44:16;;;;;;;;;0.00;0.00;;;;;14.27;40.88;97878.84;6282034;22;103280;-80
2022/01/31 02:46:50;;;;;;;;;0.00;0.00;;;;;14.28;40.20;97874.25;6320399;22;101624;-80
2022/01/31 02:49:20;;;;;;;;;0.00;0.00;;;;;14.27;40.31;97867.97;6319836;22;101894;-80
2022/01/31 02:51:59;;;;;;;;;0.00;0.00;;;;;14.29;40.34;97874.03;6285054;22;101844;-80
2022/01/31 02:54:27;;;;;;;;;0.50;0.00;;;;;14.29;40.70;97873.19;6320992;22;103625;-80
2022/01/31 02:56:54;;;;;;;;;0.00;0.00;;;;;14.28;40.41;97877.78;6318455;22;102168;-80
2022/01/31 02:59:21;;;;;;;;;0.00;0.00;;;;;14.28;40.53;97872.34;6315430;22;102252;-80
2022/01/31 03:01:48;;;;;;;;;1.75;0.00;;;;;14.26;40.31;97866.34;6325753;22;102052;-80
2022/01/31 03:04:15;;;;;;;;;0.75;0.00;;;;;14.26;40.59;97874.50;6297355;22;103292;-80
2022/01/31 03:06:49;;;;;;;;;0.00;0.00;;;;;14.26;40.09;97868.25;6271511;22;102007;-80
2022/01/31 03:09:17;;;;;;;;;0.00;0.00;;;;;14.26;40.72;97868.25;6319690;22;101935;-80
2022/01/31 03:11:44;;;;;;;;;0.75;0.00;;;;;14.25;40.84;97863.88;6257536;22;101810;-80
2022/01/31 03:14:11;;;;;;;;;0.00;0.00;;;;;14.25;40.32;97859.25;6326838;22;103299;-80
2022/01/31 03:16:41;;;;;;;;;0.00;0.00;;;;;14.26;40.73;97849.22;6320041;22;101723;-80
2022/01/31 03:19:08;;;;;;;;;0.00;0.00;;;;;14.19;40.28;97835.75;6322419;22;105266;-80
2022/01/31 03:21:36;;;;;;;;;0.00;0.00;;;;;14.25;40.87;97837.50;6298861;22;101999;-80
2022/01/31 03:24:04;;;;;;;;;0.00;0.00;;;;;14.27;40.34;97831.84;6324357;22;103307;-80
2022/01/31 03:26:32;;;;;;;;;0.00;0.00;;;;;14.26;40.71;97827.47;6323933;22;101603;-80
2022/01/31 03:28:59;;;;;;;;;0.00;0.00;;;;;14.27;40.11;97824.47;6321302;22;101929;-80
2022/01/31 03:31:26;;;;;;;;;0.00;0.00;;;;;14.27;40.28;97821.75;6322013;22;102168;-80
2022/01/31 03:33:53;;;;;;;;;0.25;0.00;;;;;14.27;40.16;97827.19;6321864;22;103379;-80
2022/01/31 03:36:20;;;;;;;;;0.00;0.00;;;;;14.27;40.87;97819.03;6323909;22;101674;-78
2022/01/31 03:38:47;;;;;;;;;0.00;0.00;;;;;14.27;40.45;97812.78;6320626;22;102020;-80
2022/01/31 03:41:16;;;;;;;;;0.00;0.00;;;;;14.27;40.98;97810.06;6317381;22;103468;-80
2022/01/31 03:43:43;;;;;;;;;0.00;0.00;;;;;14.25;40.80;97813.03;6289831;22;103576;-80
2022/01/31 03:46:10;;;;;;;;;0.00;0.00;;;;;14.26;40.47;97802.97;6309452;22;101812;-80
2022/01/31 03:48:40;;;;;;;;;0.00;0.00;;;;;14.25;40.65;97796.72;6318933;22;101919;-80
2022/01/31 03:51:07;;;;;;;;;0.00;0.00;;;;;14.24;40.79;97789.63;6293177;22;101862;-80
2022/01/31 03:53:34;;;;;;;;;0.00;0.00;;;;;14.25;40.75;97793.16;6325571;22;103430;-80
2022/01/31 03:56:01;;;;;;;;;0.00;0.00;;;;;14.24;40.70;97803.22;6323401;22;102111;-80
2022/01/31 03:58:28;;;;;;;;;0.00;0.00;;;;;14.25;40.05;97791.28;6323921;22;102237;-80
2022/01/31 04:00:55;;;;;;;;;1.00;0.00;;;;;14.26;40.77;97776.63;6296667;22;101696;-80
2022/01/31 04:03:22;;;;;;;;;0.00;0.00;;;;;14.26;40.68;97776.63;6325008;22;103452;-80
2022/01/31 04:05:50;;;;;;;;;0.00;0.00;;;;;14.26;40.22;97765.75;6322969;22;101572;-80
2022/01/31 04:08:17;;;;;;;;;0.00;0.00;;;;;14.27;40.31;97772.00;6319130;22;101710;-80
2022/01/31 04:10:44;;;;;;;;;0.00;0.00;;;;;14.28;40.96;97779.91;6275147;22;102255;-79
2022/01/31 04:13:11;;;;;;;;;0.00;0.00;;;;;14.28;40.37;97779.91;6329302;22;103322;-80
2022/01/31 04:15:39;;;;;;;;;0.00;0.00;;;;;14.26;40.72;97771.19;6324499;22;101859;-80
2022/01/31 04:18:06;;;;;;;;;0.00;0.00;;;;;14.25;40.26;97774.97;6320255;22;101908;-80
2022/01/31 04:20:33;;;;;;;;;0.00;0.00;;;;;14.26;40.70;97771.19;6327316;22;105271;-80
2022/01/31 04:23:07;;;;;;;;;0.00;0.00;;;;;14.27;40.16;97763.84;6320446;22;103322;-80
2022/01/31 04:28:23;;;;;;;;;0.00;0.00;;;;;14.25;40.44;97750.50;6317036;22;102143;-80
2022/01/31 04:33:21;;;;;;;;;0.00;0.00;;;;;14.24;40.89;97737.97;6321458;22;103265;-80
2022/01/31 04:35:48;;;;;;;;;0.00;0.00;;;;;14.26;40.83;97743.16;6321109;22;102104;-80
2022/01/31 04:38:15;;;;;;;;;0.00;0.00;;;;;14.25;40.70;97730.63;6325320;22;101808;-79
2022/01/31 04:40:42;;;;;;;;;0.00;0.00;;;;;14.25;40.53;97734.19;6325367;22;102139;-80
2022/01/31 04:43:10;;;;;;;;;0.25;0.00;;;;;14.25;40.39;97736.91;6320974;22;107834;-80
2022/01/31 04:45:37;;;;;;;;;0.00;0.00;;;;;14.26;40.47;97732.28;6323456;22;101829;-80
2022/01/31 04:48:04;;;;;;;;;0.00;0.00;;;;;14.27;40.80;97733.94;6295328;22;101866;-80
2022/01/31 04:50:31;;;;;;;;;0.00;0.00;;;;;14.27;40.64;97734.75;6322350;22;101565;-80
2022/01/31 04:52:58;;;;;;;;;0.00;0.00;;;;;14.26;40.70;97749.44;6315637;22;103236;-80
2022/01/31 04:55:25;;;;;;;;;1.00;0.00;;;;;14.26;40.68;97735.00;6294512;22;102550;-80
2022/01/31 04:57:52;;;;;;;;;0.00;0.00;;;;;14.26;40.51;97733.13;6321204;22;102209;-80
2022/01/31 05:00:20;;;;;;;;;0.00;0.00;;;;;14.26;40.83;97727.69;6324204;22;101937;-80
2022/01/31 05:02:47;;;;;;;;;0.00;0.00;;;;;14.27;40.17;97729.31;6316391;22;103598;-80
2022/01/31 05:05:14;;;;;;;;;0.00;0.00;;;;;14.27;40.86;97717.63;6296935;22;103839;-79
2022/01/31 05:07:41;;;;;;;;;0.50;0.00;;;;;14.26;40.49;97713.25;6321797;22;102387;-80
2022/01/31 05:10:09;;;;;;;;;0.00;0.00;;;;;14.26;40.60;97710.53;6318719;22;101897;-80
2022/01/31 05:12:36;;;;;;;;;0.00;0.00;;;;;14.25;40.89;97704.25;6321119;22;103893;-80
2022/01/31 05:15:04;;;;;;;;;0.00;0.00;;;;;14.26;40.69;97707.81;6316006;22;102000;-80
2022/01/31 05:17:31;;;;;;;;;0.00;0.00;;;;;14.25;40.35;97704.25;6315970;22;102180;-80
2022/01/31 05:19:58;;;;;;;;;0.00;0.00;;;;;14.23;40.12;97700.94;6314167;22;102312;-80
2022/01/31 05:22:25;;;;;;;;;0.00;0.00;;;;;14.24;40.55;97686.28;6314595;22;103824;-80
2022/01/31 05:24:52;;;;;;;;;0.00;0.00;;;;;14.24;40.22;97686.28;6314424;22;102021;-80
2022/01/31 05:27:19;;;;;;;;;0.00;0.00;;;;;14.25;40.81;97693.38;6318564;22;101930;-80
2022/01/31 05:29:46;;;;;;;;;0.00;0.00;;;;;14.26;40.61;97681.44;6323042;22;101731;-80
2022/01/31 05:32:13;;;;;;;;;0.00;0.00;;;;;14.25;40.15;97674.34;6321380;22;103513;-80
2022/01/31 05:34:40;;;;;;;;;0.00;0.00;;;;;14.25;40.05;97677.06;6290032;22;102717;-80
2022/01/31 05:37:07;;;;;;;;;0.00;0.00;;;;;14.24;41.02;97669.16;6322745;22;101584;-80
2022/01/31 05:39:35;;;;;;;;;0.00;0.00;;;;;14.25;40.90;97666.19;6324219;22;104450;-80
2022/01/31 05:42:02;;;;;;;;;1.00;0.00;;;;;14.25;40.25;97657.22;6319927;22;103257;-80
2022/01/31 05:44:29;;;;;;;;;0.00;0.00;;;;;14.26;40.68;97645.28;6320772;22;102134;-80
2022/01/31 05:46:56;;;;;;;;;0.00;0.00;;;;;14.24;40.01;97647.41;6324402;22;101898;-80
2022/01/31 05:49:29;;;;;;;;;0.00;0.00;;;;;14.26;40.31;97648.00;6293094;22;101819;-79
2022/01/31 05:52:02;;;;;;;;;0.00;0.00;;;;;14.24;40.26;97652.84;6293728;22;103242;-80
2022/01/31 05:54:29;;;;;;;;;0.00;0.00;;;;;14.24;40.21;97658.28;6324551;22;102633;-80
2022/01/31 05:56:56;;;;;;;;;0.00;0.00;;;;;14.24;40.48;97653.66;6320235;22;101985;-80
2022/01/31 05:59:23;;;;;;;;;0.00;0.00;;;;;14.24;40.88;97656.38;6326366;22;102214;-80
2022/01/31 06:01:51;;;;;;;;;0.75;0.00;;;;;14.24;40.28;97644.69;6311638;22;103588;-80
2022/01/31 06:04:18;;;;;;;;;1.00;1.00;;;;;14.24;40.28;97648.22;6322621;22;101859;-80
2022/01/31 06:06:45;;;;;;;;;1.00;0.00;;;;;14.26;40.32;97645.28;6321966;22;101976;-79
2022/01/31 06:09:17;;;;;;;;;0.25;0.00;;;;;14.27;40.67;97644.22;6294200;22;102117;-79
2022/01/31 06:11:45;;;;;;;;;0.00;0.00;;;;;14.27;40.20;97650.44;6318131;22;103360;-80
2022/01/31 06:14:12;;;;;;;;;0.00;0.00;;;;;14.27;40.42;97642.28;6318710;22;101993;-80
2022/01/31 06:16:40;;;;;;;;;0.00;0.00;;;;;14.27;40.21;97636.06;6291474;22;106019;-80
2022/01/31 06:19:29;;;;;;;;;0.50;0.00;;;;;14.26;40.40;97629.78;6293360;22;101789;-80
2022/01/31 06:21:56;;;;;;;;;0.00;0.00;;;;;14.25;40.55;97633.56;6315385;22;108058;-80
2022/01/31 06:24:23;;;;;;;;;0.00;0.00;;;;;14.26;40.21;97621.63;6312506;22;101518;-80
2022/01/31 06:26:51;;;;;;;;;0.00;0.00;;;;;14.26;40.19;97627.06;6313195;22;103241;-80
2022/01/31 06:29:19;;;;;;;;;0.00;0.00;;;;;14.25;40.17;97622.69;6324535;22;102085;-80
2022/01/31 06:31:46;;;;;;;;;0.00;0.00;;;;;14.26;40.81;97618.09;6315251;22;103258;-79
2022/01/31 06:34:13;;;;;;;;;0.00;0.00;;;;;14.26;40.86;97618.91;6328304;22;101903;-80
2022/01/31 06:36:40;;;;;;;;;0.00;0.00;;;;;14.27;40.15;97615.09;6296162;22;101949;-80
2022/01/31 06:39:07;;;;;;;;;0.75;0.00;;;;;14.26;40.82;97612.66;6291958;22;101769;-80
2022/01/31 06:41:35;;;;;;;;;2.75;0.00;;;;;14.26;40.29;97605.31;6319189;22;103476;-80
2022/01/31 06:44:02;;;;;;;;;0.50;0.00;;;;;14.27;40.25;97608.84;6313310;22;101545;-80
2022/01/31 06:46:29;;;;;;;;;1.00;0.00;;;;;14.28;40.99;97614.03;6295639;22;102445;-80
2022/01/31 06:48:56;;;;;;;;;1.00;0.00;;;;;14.28;40.73;97611.31;6327459;22;101959;-80
2022/01/31 06:51:24;;;;;;;;;1.00;0.00;;;;;14.27;40.66;97604.22;6319081;22;103455;-80
2022/01/31 06:53:55;;;;;;;;;0.75;0.00;;;;;14.28;40.78;97605.88;6322670;22;101905;-80
2022/01/31 06:56:29;;;;;;;;;0.25;0.00;;;;;14.26;40.59;97602.59;6317724;22;102225;-80
2022/01/31 06:58:59;;;;;;;;;0.25;0.00;;;;;14.28;40.58;97597.72;6295605;22;101762;-80
2022/01/31 07:01:26;;;;;;;;;1.75;0.00;;;;;14.28;40.54;97600.44;6324364;22;103445;-80
2022/01/31 07:03:54;;;;;;;;;0.00;0.00;;;;;14.28;40.31;97588.72;6292736;22;101901;-80
2022/01/31 07:06:23;;;;;;;;;0.00;0.00;;;;;14.28;40.21;97595.00;6317446;22;102152;-80
2022/01/31 07:08:50;;;;;;;;;0.25;0.00;;;;;14.27;39.94;97587.91;6312432;22;102095;-80
2022/01/31 07:11:23;;;;;;;;;1.00;0.25;;;;;14.28;39.88;97584.13;6321689;22;103248;-79
2022/01/31 07:14:01;;;;;;;;;0.50;0.00;;;;;14.28;40.49;97581.41;6317563;22;101989;-79
2022/01/31 07:16:28;;;;;;;;;1.00;0.75;;;;;14.28;40.32;97573.25;6297976;22;101803;-80
2022/01/31 07:19:04;;;;;;;;;0.50;0.50;;;;;14.28;40.63;97578.69;6314724;22;101802;-80
2022/01/31 07:21:39;;;;;;;;;1.00;0.25;;;;;14.29;40.11;97564.00;6326358;22;103338;-80
2022/01/31 07:24:20;;;;;;;;;1.00;0.00;;;;;14.30;40.33;97560.22;6324600;22;101933;-80
2022/01/31 07:26:47;;;;;;;;;0.75;0.00;;;;;14.32;40.26;97551.00;6325050;22;101860;-79
2022/01/31 07:29:14;;;;;;;;;0.50;0.00;;;;;14.32;40.59;97548.28;6327475;22;102123;-80
2022/01/31 07:31:42;;;;;;;;;1.00;1.00;;;;;14.31;40.45;97547.47;6327301;22;108472;-80
2022/01/31 07:34:09;;;;;;;;;0.50;0.00;;;;;14.32;40.83;97545.56;6298734;22;101925;-79
2022/01/31 07:36:36;;;;;;;;;1.00;1.00;;;;;14.32;40.26;97547.19;6275261;22;101974;-80
2022/01/31 07:39:03;;;;;;;;;1.50;1.00;;;;;14.32;40.16;97539.03;6325758;22;101835;-80
2022/01/31 07:41:30;;;;;;;;;1.00;0.00;;;;;14.34;40.71;97549.66;6326803;22;103476;-80
2022/01/31 07:43:57;;;;;;;;;1.00;0.00;;;;;14.32;40.21;97535.50;6319784;22;102032;-80
2022/01/31 07:46:24;;;;;;;;;1.25;1.00;;;;;14.34;40.37;97540.69;6319854;22;101691;-80
2022/01/31 07:48:53;;;;;;;;;1.00;1.00;;;;;14.33;40.62;97534.41;6329813;22;101949;-80
2022/01/31 07:51:23;;;;;;;;;0.00;0.00;;;;;14.34;40.50;97529.81;6316069;22;103403;-79
2022/01/31 07:53:50;;;;;;;;;2.00;1.00;;;;;14.33;40.56;97520.81;6295316;22;102117;-80
2022/01/31 07:56:18;;;;;;;;;1.00;0.00;;;;;14.35;40.52;97523.31;6321670;22;101911;-80
2022/01/31 07:58:45;;;;;;;;;0.50;0.50;;;;;14.35;40.18;97529.56;6323129;22;101835;-80
2022/01/31 08:01:12;;;;;;;;;1.00;1.00;;;;;14.35;40.64;97528.75;6320331;22;108224;-80
2022/01/31 08:03:40;;;;;;;;;0.00;0.00;;;;;14.35;40.04;97506.97;6322026;22;101730;-80
2022/01/31 08:06:07;;;;;;;;;1.50;0.25;;;;;14.36;39.99;97504.06;6317274;22;101802;-80
2022/01/31 08:08:35;;;;;;;;;1.75;0.00;;;;;14.38;39.92;97506.50;6322749;22;101794;-80
2022/01/31 08:11:03;;;;;;;;;2.00;1.00;;;;;14.37;40.24;97486.63;6324806;22;103315;-80
2022/01/31 08:13:32;;;;;;;;;1.00;0.00;;;;;14.40;40.13;97482.63;6323120;22;102043;-79
2022/01/31 08:16:09;;;;;;;;;0.00;0.00;;;;;14.40;40.77;97488.06;6327428;22;101868;-80
2022/01/31 08:18:38;;;;;;;;;0.00;0.00;;;;;14.40;40.80;97485.34;6325358;22;104584;-80
2022/01/31 08:21:06;;;;;;;;;1.50;1.00;;;;;14.41;40.13;97479.63;6322078;22;103284;-80
2022/01/31 08:23:33;;;;;;;;;0.00;0.00;;;;;14.42;40.59;97480.44;6324510;22;102019;-80
2022/01/31 08:26:12;;;;;;;;;2.00;0.00;;;;;14.42;40.62;97483.16;6326582;22;101920;-80
2022/01/31 08:28:44;;;;;;;;;1.75;0.00;;;;;14.42;40.36;97480.44;6316393;22;101747;-80
2022/01/31 08:31:18;;;;;;;;;1.00;1.00;;;;;14.44;40.55;97472.88;6318740;22;105410;-80
2022/01/31 08:33:50;;;;;;;;;1.00;1.00;;;;;14.43;40.33;97465.78;6325356;22;101895;-80
2022/01/31 08:36:17;;;;;;;;;2.00;0.00;;;;;14.44;40.88;97459.28;6323677;22;101964;-79
2022/01/31 08:38:45;;;;;;;;;1.00;1.00;;;;;14.45;40.76;97458.19;6325983;22;101896;-80
2022/01/31 08:41:12;;;;;;;;;1.00;0.75;;;;;14.44;40.03;97445.66;6309930;22;105734;-80
2022/01/31 08:43:39;;;;;;;;;0.00;0.00;;;;;14.44;40.48;97457.38;6284509;22;102101;-80
2022/01/31 08:46:07;;;;;;;;;1.00;0.75;;;;;14.45;40.45;97458.19;6321262;22;101865;-80
2022/01/31 08:48:34;;;;;;;;;0.25;0.25;;;;;14.46;40.02;97447.06;6316292;22;101766;-80
2022/01/31 08:51:02;;;;;;;;;1.25;1.00;;;;;14.45;40.43;97448.16;6323795;22;103281;-80
2022/01/31 08:53:31;;;;;;;;;2.00;1.00;;;;;14.45;40.76;97441.88;6315809;22;101928;-80
2022/01/31 08:56:03;;;;;;;;;0.75;0.75;;;;;14.45;39.98;97436.44;6317218;22;101566;-80
2022/01/31 08:58:30;;;;;;;;;2.00;0.00;;;;;14.43;40.00;97433.97;6289185;22;101735;-80
2022/01/31 09:01:05;;;;;;;;;0.00;0.00;;;;;14.43;40.65;97433.97;6289313;22;103573;-80
2022/01/31 09:03:44;;;;;;;;;0.75;0.75;;;;;14.42;40.54;97420.63;6326513;22;101996;-80
2022/01/31 09:06:17;;;;;;;;;2.00;1.00;;;;;14.41;40.53;97416.28;6319789;22;101684;-80
2022/01/31 09:08:44;;;;;;;;;1.00;1.00;;;;;14.41;40.61;97417.06;6317168;22;101696;-80
2022/01/31 09:11:11;;;;;;;;;1.00;0.25;;;;;14.40;40.08;97409.19;6282727;22;103279;-80
2022/01/31 09:13:38;;;;;;;;;2.75;2.00;;;;;14.39;40.05;97415.69;6321727;22;102294;-80
2022/01/31 09:16:05;;;;;;;;;1.00;1.00;;;;;14.39;40.54;97410.25;6314867;22;102106;-80
2022/01/31 09:18:33;;;;;;;;;1.00;0.75;;;;;14.38;40.26;97405.88;6328451;22;101950;-80
2022/01/31 09:21:00;;;;;;;;;1.50;1.50;;;;;14.38;40.71;97403.16;6323106;22;103078;-80
2022/01/31 09:23:27;;;;;;;;;1.00;1.00;;;;;14.39;39.86;97402.09;6321380;22;101775;-80
2022/01/31 09:25:54;;;;;;;;;1.00;1.00;;;;;14.39;40.39;97394.75;6327552;22;101664;-80
2022/01/31 09:28:21;;;;;;;;;1.00;1.00;;;;;14.38;40.13;97389.56;6323304;22;101881;-80
2022/01/31 09:30:49;;;;;;;;;2.50;1.00;;;;;14.38;40.30;97381.41;6297723;22;103320;-80
2022/01/31 09:33:22;;;;;;;;;2.00;1.00;;;;;14.39;40.63;97380.34;6323582;22;102474;-80
2022/01/31 09:35:49;;;;;;;;;1.00;1.00;;;;;14.39;40.64;97383.06;6297963;22;101973;-80
2022/01/31 09:38:18;;;;;;;;;1.50;1.00;;;;;14.39;40.11;97381.16;6301686;22;101715;-80
2022/01/31 09:40:45;;;;;;;;;1.25;1.00;;;;;14.39;40.54;97377.63;6324788;22;107839;-80
2022/01/31 09:48:33;;;;;;;;;2.75;1.00;;;;;14.40;40.38;97371.94;6316226;22;102097;-80
2022/01/31 09:51:02;;;;;;;;;2.00;1.00;;;;;14.40;40.00;97362.94;6312959;22;107879;-80
2022/01/31 09:53:36;;;;;;;;;2.00;2.00;;;;;14.40;40.01;97357.50;6325649;22;102006;-80
2022/01/31 09:56:04;;;;;;;;;1.75;1.00;;;;;14.39;40.07;97351.25;6325904;22;101869;-80
2022/01/31 09:58:31;;;;;;;;;2.00;1.00;;;;;14.38;40.45;97344.16;6326365;22;102269;-80
2022/01/31 10:01:18;;;;;;;;;1.00;1.00;;;;;14.39;40.33;97339.53;6296835;22;103245;-80
2022/01/31 10:03:46;;;;;;;;;1.50;1.00;;;;;14.40;40.63;97343.91;6316891;22;101799;-80
2022/01/31 10:06:24;;;;;;;;;0.75;0.75;;;;;14.39;40.34;97343.09;6322294;22;104620;-80
2022/01/31 10:09:13;;;;;;;;;2.75;2.75;;;;;14.40;40.50;97333.03;6316392;22;102415;-80
2022/01/31 10:17:24;;;;;;;;;1.00;1.00;;;;;14.39;40.53;97329.50;6291483;22;101747;-80
2022/01/31 10:20:07;;;;;;;;;1.75;1.75;;;;;14.39;40.10;97328.66;6304142;22;101829;-80
2022/01/31 10:22:35;;;;;;;;;1.00;1.00;;;;;14.39;40.49;97320.50;6312530;22;103048;-80
2022/01/31 10:25:06;;;;;;;;;1.50;1.00;;;;;14.39;40.42;97317.78;6318479;22;101907;-80
2022/01/31 10:27:34;;;;;;;;;2.25;1.00;;;;;14.38;40.48;97311.53;6312351;22;102718;-80
2022/01/31 10:30:08;;;;;;;;;1.00;1.00;;;;;14.38;40.12;97313.41;6314412;22;102290;-80
2022/01/31 10:32:37;;;;;;;;;1.25;1.25;;;;;14.37;40.40;97309.88;6325847;22;103298;-80
2022/01/31 10:35:06;;;;;;;;;3.00;1.00;;;;;14.37;40.47;97296.28;6321244;22;101659;-80
2022/01/31 10:37:35;;;;;;;;;3.00;1.25;;;;;14.37;40.46;97293.56;6315925;22;104439;-80
2022/01/31 10:45:49;;;;;;;;;1.25;1.25;;;;;14.37;39.89;97288.13;6319014;22;101814;-80
2022/01/31 10:54:08;;;;;;;;;2.00;2.00;;;;;14.37;40.39;97279.13;6325515;22;109296;-80
2022/01/31 10:56:43;;;;;;;;;1.75;1.25;;;;;14.36;40.01;97280.25;6321693;22;101873;-80
2022/01/31 10:59:17;;;;;;;;;2.75;1.50;;;;;14.36;40.70;97274.81;6297825;22;102022;-80
2022/01/31 11:01:48;;;;;;;;;2.25;1.50;;;;;14.35;40.17;97273.94;6295892;22;101850;-80
2022/01/31 11:04:39;;;;;;;;;1.00;1.00;;;;;14.36;40.10;97274.81;6323242;22;107883;-80
2022/01/31 11:07:08;;;;;;;;;2.25;1.75;;;;;14.35;40.46;97267.69;6321895;22;101576;-80
2022/01/31 11:09:35;;;;;;;;;2.50;2.00;;;;;14.35;40.65;97267.69;6319562;22;101695;-80
2022/01/31 11:12:04;;;;;;;;;4.00;3.00;;;;;14.34;40.02;97260.59;6326245;22;101889;-80
2022/01/31 11:14:31;;;;;;;;;2.00;2.00;;;;;14.35;40.67;97259.53;6315583;22;103329;-80
2022/01/31 11:16:58;;;;;;;;;2.25;2.25;;;;;14.34;39.95;97264.13;6290657;22;101860;-80
2022/01/31 11:19:31;;;;;;;;;1.50;1.50;;;;;14.35;40.10;97257.63;6294810;22;101741;-80
2022/01/31 11:22:02;;;;;;;;;1.75;1.75;;;;;14.35;40.64;97263.06;6318713;22;102190;-80
2022/01/31 11:24:32;;;;;;;;;2.00;2.00;;;;;14.36;40.45;97251.16;6318227;22;103494;-80
2022/01/31 11:27:10;;;;;;;;;3.50;2.50;;;;;14.37;39.98;97243.78;6320429;22;101506;-80
2022/01/31 11:29:40;;;;;;;;;2.25;2.00;;;;;14.35;40.61;97252.19;6319215;22;101685;-80
2022/01/31 11:32:08;;;;;;;;;3.50;1.00;;;;;14.37;40.33;97243.78;6313504;22;101848;-80
2022/01/31 11:34:37;;;;;;;;;2.75;2.00;;;;;14.38;40.44;97240.00;6291106;22;105014;-80
2022/01/31 11:37:04;;;;;;;;;2.25;1.00;;;;;14.36;40.65;97243.00;6293135;22;102166;-80
2022/01/31 11:39:31;;;;;;;;;2.75;1.00;;;;;14.36;40.52;97240.28;6264774;22;101933;-80
2022/01/31 11:41:59;;;;;;;;;3.50;1.25;;;;;14.37;40.25;97241.91;6327326;22;101860;-80
2022/01/31 11:44:57;;;;;;;;;2.50;2.00;;;;;14.39;40.10;97244.38;6297036;22;103260;-80
2022/01/31 11:47:25;;;;;;;;;2.75;2.00;;;;;14.38;40.04;97240.00;6316847;22;102074;-80
2022/01/31 11:49:57;;;;;;;;;1.75;1.75;;;;;14.37;40.05;97233.72;6295118;22;101964;-80
2022/01/31 11:52:24;;;;;;;;;2.75;2.50;;;;;14.37;40.41;97235.63;6320950;22;101986;-80
2022/01/31 11:54:52;;;;;;;;;3.50;3.50;;;;;14.37;40.17;97236.47;6317651;22;103287;-80
2022/01/31 11:57:27;;;;;;;;;2.00;1.00;;;;;14.37;40.47;97230.19;6329263;22;101945;-80
2022/01/31 11:59:59;;;;;;;;;3.25;2.00;;;;;14.37;39.99;97231.03;6323565;22;101938;-80
2022/01/31 12:02:29;;;;;;;;;3.00;2.00;;;;;14.38;40.56;97226.41;6303059;22;101589;-80